• Join FlightAware (Why Join?)
  • Login
  • US Flag 
Rudolph Flight #1: Arrived! 
05:19PM EST


 

Airport Tracker/Info


-or-


 

Live Flight TrackerFlight Track Log ✈ UAL4434 ✈ 2013年 04月 26日 ✈ KMCI - KEWR

Flight Track Log - Related Links

Times and Time Zones

All times are in EDT time to prevent confusion due to time zone crossing. See the UAL4434 flight status page for this flight to view local times or setup timezone preferences in your user account.

Time Position Orientation Groundspeed Altitude Reporting Facility
EDT Latitude Longitude Course Direction KTS MPH feet Rate Location/Type
07:33AM 39.2833 -94.7333 84° East 130 150 1,700  Level Kansas City TRACON
07:34AM 39.2500 -94.7167 159° South 176 203 3,100 1,680 Climbing Kansas City TRACON
07:35AM 39.2331 -94.7169 181° South 184 212 3,900 2,100 Climbing Kansas City Center
07:36AM 39.3337 -94.3261 80° East  Level FlightAware Approximate
07:36AM 39.2039 -94.6558 122° Southeast 254 292 6,300  Level Kansas City Center
07:37AM 39.3537 -94.1794 80° East  Level FlightAware Approximate
07:37AM 39.2508 -94.5661 56° Northeast 272 313 9,100  Level Kansas City Center
07:38AM 39.3723 -94.0325 82° East  Level FlightAware Approximate
07:38AM 39.2961 -94.4856 54° Northeast 287 330 10,800  Level Kansas City Center
07:39AM 39.3875 -93.8800 84° East  Level FlightAware Approximate
07:39AM 39.3428 -94.3892 58° Northeast 329 379 12,100  Level Kansas City Center
07:40AM 39.3578 -94.2442 82° East 363 418 13,700 1,500 Climbing Kansas City Center
07:41AM 39.3697 -94.1158 83° East 376 433 15,200 1,440 Climbing Kansas City Center
07:42AM 39.3825 -93.9828 83° East 387 445 16,600 1,440 Climbing Kansas City Center
07:43AM 39.4019 -93.8256 81° East 397 457 18,100 1,320 Climbing Kansas City Center
07:44AM 39.4183 -93.7014 80° East 407 468 19,400 1,320 Climbing Kansas City Center
07:45AM 39.4358 -93.5567 81° East 411 473 20,900 1,560 Climbing Kansas City Center
07:46AM 39.4567 -93.3781 81° East 420 483 22,700 1,560 Climbing Kansas City Center
07:47AM 39.4753 -93.2322 81° East 420 483 24,100 1,380 Climbing Kansas City Center
07:48AM 39.4936 -93.0842 81° East 421 484 25,600 1,440 Climbing Kansas City Center
07:49AM 39.5094 -92.9303 82° East 430 495 27,100 1,440 Climbing Kansas City Center
07:50AM 39.5275 -92.7797 81° East 430 495 28,600 1,380 Climbing Kansas City Center
07:51AM 39.5442 -92.6344 81° East 421 484 30,000 1,200 Climbing Kansas City Center
07:52AM 39.5600 -92.4861 82° East 420 483 31,100 900 Climbing Kansas City Center
07:53AM 39.5772 -92.3369 81° East 421 484 31,900 900 Climbing Kansas City Center
07:54AM 39.5969 -92.1514 82° East 432 497 32,900 960 Climbing Kansas City Center
07:55AM 39.6139 -91.9939 82° East 441 507 33,900 900 Climbing Kansas City Center
07:56AM 39.6311 -91.8361 82° East 446 513 34,800 540 Climbing Kansas City Center
07:57AM 39.6481 -91.6783 82° East 446 513 35,000 60 Climbing Kansas City Center
07:58AM 39.6639 -91.5133 83° East 457 526 35,000  Level Kansas City Center
07:59AM 39.6822 -91.3392 82° East 479 551 35,000  Level Kansas City Center
08:00AM 39.6997 -91.1675 82° East 498 573 35,000  Level Kansas City Center
08:01AM 39.7225 -90.9394 83° East 520 598 35,000 60 Level Kansas City Center
08:02AM 39.7408 -90.7511 83° East 526 605 35,200 480 Climbing Kansas City Center
08:03AM 39.7567 -90.5783 83° East 521 600 36,100 840 Climbing Kansas City Center
08:04AM 39.7742 -90.3992 83° East 510 587 37,000 420 Climbing Kansas City Center
08:05AM 39.7908 -90.2192 83° East 505 581 37,000  Level Kansas City Center
08:06AM 39.8075 -90.0381 83° East 506 582 37,000  Level Kansas City Center
08:07AM 39.8242 -89.8519 83° East 514 592 37,000  Level Kansas City Center
08:08AM 39.8383 -89.6625 84° East 522 601 37,000  Level Kansas City Center
08:09AM 39.8403 -89.4706 89° East 530 610 37,000  Level Kansas City Center
08:10AM 39.8411 -89.2411 90° East 531 611 37,000  Level Kansas City Center
08:11AM 39.8408 -89.0483 90° East 533 613 37,000  Level Kansas City Center
08:12AM 39.8417 -88.8567 90° East 534 615 37,000  Level Kansas City Center
08:13AM 39.8411 -88.6675 90° East 528 608 37,000  Level Kansas City Center
08:14AM 39.8422 -88.4789 89° East 524 603 37,000  Level Kansas City Center
08:15AM 39.8425 -88.2908 90° East 522 601 37,000  Level Kansas City Center
08:16AM 39.8397 -88.1247 91° East 518 596 37,000  Level Indianapolis Center
08:17AM 39.8369 -87.9072 91° East 515 593 37,000  Level Indianapolis Center
08:18AM 39.8356 -87.7206 90° East 513 590 37,000  Level Indianapolis Center
08:19AM 39.8344 -87.5347 90° East 512 589 37,000  Level Indianapolis Center
08:20AM 39.8317 -87.3503 91° East 509 586 37,000  Level Indianapolis Center
08:21AM 39.8292 -87.1647 91° East 509 586 37,000  Level Indianapolis Center
08:22AM 39.8258 -86.9803 91° East 507 583 37,000  Level Indianapolis Center
08:23AM 39.8228 -86.7967 91° East 507 583 37,000  Level Indianapolis Center
08:24AM 39.8192 -86.6128 91° East 505 581 37,000  Level Indianapolis Center
08:25AM 39.8158 -86.4269 91° East 507 583 37,000  Level Indianapolis Center
08:26AM 39.8400 -86.2417 80° East 503 579 37,000  Level Indianapolis Center
08:27AM 39.8789 -86.0656 74° East 495 570 37,000  Level Indianapolis Center
08:28AM 39.9156 -85.8917 75° East 494 568 37,000  Level Indianapolis Center
08:29AM 39.9525 -85.7169 75° East 496 571 37,000  Level Indianapolis Center
08:30AM 39.9944 -85.5136 75° East 495 570 37,000  Level Indianapolis Center
08:32AM 40.0300 -85.3392 75° East 495 570 37,000  Level Indianapolis Center
08:33AM 40.0661 -85.1661 75° East 492 566 37,000  Level Indianapolis Center
08:34AM 40.1019 -84.9919 75° East 495 570 37,000  Level Indianapolis Center
08:35AM 40.1364 -84.8106 76° East 489 563 37,000  Level Indianapolis Center
08:36AM 40.1722 -84.6367 75° East 490 564 37,000  Level Indianapolis Center
08:37AM 40.2119 -84.4344 76° East 488 562 37,000  Level Indianapolis Center
08:38AM 40.2464 -84.2594 75° East 490 564 37,000  Level Indianapolis Center
08:39AM 40.2797 -84.0864 76° East 486 559 37,000  Level Indianapolis Center
08:40AM 40.3397 -83.9306 63° Northeast 473 544 37,000  Level Indianapolis Center
08:41AM 40.4083 -83.7819 59° Northeast 471 542 37,000  Level Indianapolis Center
08:42AM 40.4758 -83.6331 59° Northeast 470 541 37,000  Level Indianapolis Center
08:43AM 40.5453 -83.4831 59° Northeast 474 545 37,000  Level Indianapolis Center
08:44AM 40.6236 -83.3069 60° Northeast 474 545 37,000  Level Indianapolis Center
08:44AM 40.6464 -83.2594 58° Northeast 465 535 37,000  Level Cleveland Center
08:45AM 40.7144 -83.1089 59° Northeast 465 535 37,000  Level Cleveland Center
08:46AM 40.7869 -82.9469 59° Northeast 465 535 37,000  Level Cleveland Center
08:47AM 40.8417 -82.8144 61° Northeast 459 528 37,000  Level Cleveland Center
08:48AM 40.9111 -82.6658 58° Northeast 459 528 37,000  Level Cleveland Center
08:49AM 40.9828 -82.5031 60° Northeast 459 528 37,000  Level Cleveland Center
08:50AM 41.0458 -82.3478 62° Northeast 459 528 37,000  Level Cleveland Center
08:51AM 41.0817 -82.1781 74° East 470 541 37,000  Level Cleveland Center
08:52AM 41.1172 -82.0025 75° East 485 558 37,000  Level Cleveland Center
08:53AM 41.1525 -81.8461 73° East 490 564 37,000  Level Cleveland Center
08:54AM 41.1897 -81.6703 74° East 484 557 37,000  Level Cleveland Center
08:55AM 41.2225 -81.4969 76° East 484 557 37,000  Level Cleveland Center
08:56AM 41.2594 -81.3067 75° East 484 557 37,000  Level Cleveland Center
08:57AM 41.2936 -81.1358 75° East 484 557 37,000  Level Cleveland Center
08:58AM 41.3278 -80.9619 75° East 479 551 37,000  Level Cleveland Center
08:59AM 41.3614 -80.7906 75° East 479 551 37,000  Level Cleveland Center
09:00AM 41.3950 -80.6192 75° East 479 551 37,000  Level Cleveland Center
09:01AM 41.4283 -80.4447 76° East 473 544 37,000  Level Cleveland Center
09:02AM 41.4594 -80.2894 75° East 473 544 37,000  Level Cleveland Center
09:03AM 41.4922 -80.1147 76° East 473 544 37,000  Level Cleveland Center
09:04AM 41.5267 -79.9286 76° East 473 544 37,000  Level Cleveland Center
09:05AM 41.5589 -79.7561 76° East 473 544 37,000  Level Cleveland Center
09:06AM 41.5886 -79.5781 77° East 473 544 37,000  Level Cleveland Center
09:07AM 41.5869 -79.4006 91° East 468 539 37,000  Level Cleveland Center
09:08AM 41.5725 -79.2203 96° East 473 544 37,000  Level Cleveland Center
09:09AM 41.5556 -79.0375 97° East 486 559 37,000 -360 Level Cleveland Center
09:10AM 41.5383 -78.8578 97° East 486 559 36,300 -900 Descending Cleveland Center
09:11AM 41.5231 -78.6806 97° East 486 559 35,200 -1,200 Descending Cleveland Center
09:12AM 41.5075 -78.5036 97° East 479 551 33,900 -1,260 Descending Cleveland Center
09:14AM 41.4933 -78.3297 96° East 481 554 32,600 -1,260 Descending New York Center
09:15AM 41.4772 -78.1561 97° East 481 554 31,300 -840 Descending New York Center
09:16AM 41.4606 -77.9853 97° East 476 548 31,000 -180 Descending New York Center
09:17AM 41.4442 -77.8092 97° East 471 542 31,000  Level New York Center
09:18AM 41.4250 -77.6356 98° East 471 542 31,000  Level New York Center
09:19AM 41.4100 -77.4625 97° East 471 542 31,000  Level New York Center
09:20AM 41.3892 -77.2722 98° East 471 542 31,000 -720 Level New York Center
09:21AM 41.3714 -77.1019 98° East 471 542 29,700 -1,500 Descending New York Center
09:22AM 41.3536 -76.9233 97° East 471 542 28,000 -1,680 Descending New York Center
09:23AM 41.3292 -76.7497 101° East 471 542 26,400 -1,680 Descending New York Center
09:24AM 41.2833 -76.5800 110° East 476 548 24,700 -1,680 Descending New York Center
09:25AM 41.2375 -76.4078 109° East 482 555 23,100 -1,860 Descending New York Center
09:26AM 41.1969 -76.2556 109° East 493 567 21,100 -2,520 Descending New York Center
09:27AM 41.1506 -76.0808 109° East 468 539 18,100 -2,340 Descending New York Center
09:28AM 41.1114 -75.9319 109° East 434 499 16,500 -1,740 Descending New York Center
09:29AM 41.0772 -75.8053 110° East 411 473 14,700 -1,740 Descending New York Center
09:30AM 41.0336 -75.6536 111° Southeast 399 459 13,100 -900 Descending New York Center
09:31AM 40.9956 -75.5161 110° East 399 459 13,000 -720 Descending New York Center
09:32AM 40.9625 -75.4011 111° Southeast 389 448 11,700 -1,380 Descending New York Center
09:33AM 40.9294 -75.2836 110° East 359 413 10,300 -1,560 Descending New York Center
09:34AM 40.8983 -75.1689 110° East 308 354 8,700 -1,500 Descending New York Center
09:35AM 40.8708 -75.0711 110° East 290 334 7,400 -900 Descending New York Center
09:36AM 40.8386 -74.9814 115° Southeast 277 319 7,000 -480 Descending New York Center
09:37AM 40.8083 -74.8972 115° Southeast 266 306 6,500 -540 Descending New York Center
09:38AM 40.7700 -74.7961 117° Southeast 272 313 6,000 -300 Descending New York Center
09:39AM 40.7417 -74.7150 115° Southeast 272 313 6,000  Level New York Center
09:40AM 40.6944 -74.6275 125° Southeast 265 305 6,000  Level New York Center
09:40AM 40.6667 -74.6000 143° Southeast 267 307 6,000 -540 Level New York TRACON
09:41AM 40.6167 -74.5500 143° Southeast 264 304 5,300 -540 Descending New York TRACON
09:42AM 40.5667 -74.4833 135° Southeast 260 299 5,000 -600 Descending New York TRACON
09:43AM 40.5167 -74.4167 135° Southeast 250 288 4,200 -780 Descending New York TRACON
09:44AM 40.5000 -74.3333 105° East 221 254 3,500 -660 Descending New York TRACON
09:45AM 40.5167 -74.2667 72° East 212 244 3,000 -600 Descending New York TRACON